Crooked Creek Research Lab Weather observations

Data are for 10 minute period ending at time listed.
 Day   Time    Ave.   Ave.  Ave.  Vector   Max.   Stn.    Total    Solar   Ave.   Snow 
  of    of     Air    Rel.  Wind   Wind    Wind   Baro.  Precip.   Rad.    Soil   Depth
Year   Day     Temp.  Hum.  Speed  Dir.    Gust   Pres.                    Temp.       
2016   (PST)    F      %     mph   deg.    mph     mb.     in.     W/m2     F      in. 
---------------------------------------------------------------------------------------  
 183    0:00   45.7    85    0.6   105      2.1   699.0    0.00       0    999.0    -0.3
 183    0:10   46.0    84    0.6   121      2.0   699.1    0.00       0    999.0    -0.3
 183    0:20   46.2    82    0.3    73      2.1   699.1    0.00       0    999.0    -0.4
 183    0:30   47.0    80    0.4   122      2.1   699.1    0.00       0    999.0    -0.5
 183    0:40   46.7    83    1.3   121      3.5   699.1    0.00       0    999.0    -0.5
 183    0:50   46.2    84    0.6   127      2.2   699.0    0.00       0    999.0    -0.5
 183    1:00   45.6    85    0.2   127      1.3   698.9    0.00       0    999.0    -0.5
 183    1:10   45.4    86    0.4   128      1.5   698.6    0.00       0    999.0    -0.5
 183    1:20   45.5    85    1.0   222      2.3   698.7    0.00       0    999.0    -0.5
 183    1:30   45.2    87    0.5   151      2.0   698.6    0.00       0    999.0    -0.6
 183    1:40   44.6    87    0.3   344      2.9   698.7    0.00       0    999.0    -0.6
 183    1:50   44.2    88    0.9    92      3.3   698.7    0.00       0    999.0    -0.8
 183    2:00   44.0    88    1.2   122      3.5   698.3    0.00       0    999.0    -0.7
 183    2:10   43.3    89    0.8   103      2.5   698.5    0.00       0    999.0    -0.8
 183    2:20   43.5    89    2.0   118      2.8   698.7    0.00       0    999.0    -0.8
 183    2:30   43.2    90    2.3   122      3.5   698.5    0.00       0    999.0    -0.8
 183    2:40   42.4    92    1.3   155      2.6   698.3    0.00       0    999.0    -0.9
 183    2:50   42.3    93    1.0   135      3.3   698.3    0.00       0    999.0    -0.9
 183    3:00   42.6    93    2.3   130      3.4   698.2    0.00       0    999.0    -1.2
 183    3:10   43.2    90    0.9   130      3.1   698.5    0.00       0    999.0    -1.2
 183    3:20   42.1    93    0.6   131      2.9   698.2    0.00       0    999.0    -1.1
 183    3:30   41.2    93    0.0   149      0.4   697.9    0.00       0    999.0    -1.1
 183    3:40   40.4    95    0.2   121      2.3   697.9    0.00       0    999.0    -0.9
 183    3:50   40.3    94    1.1   150      3.5   698.1    0.00       0    999.0    -1.4
 183    4:00   40.5    96    0.8   154      3.6   698.5    0.00       0    999.0     7.7
 183    4:10   41.5    94    1.0   141      2.0   698.3    0.00       0    999.0    17.5
 183    4:20   42.8    90    1.3   188      3.1   698.2    0.00       0    999.0    45.8
 183    4:30   43.1    87    0.7   162      3.2   698.1    0.00       1    999.0    -1.3
 183    4:40   42.3    88    1.2   176      3.6   697.9    0.00       3    999.0    -1.1
 183    4:50   42.2    89    1.4   225      5.3   698.1    0.00       8    999.0    -0.9
 183    5:00   43.1    87    2.4   205      5.3   698.1    0.00      13    999.0    -0.8
 183    5:10   43.3    88    1.4   181      3.7   698.4    0.00      17    999.0    -0.8
 183    5:20   43.7    88    0.7   149      2.8   697.8    0.00      20    999.0    -0.7
 183    5:30   43.8    88    0.9   136      3.0   698.1    0.00      23    999.0    -0.7
 183    5:40   46.2    82    2.0   151      5.5   698.1    0.00      26    999.0    -0.7
 183    5:50   48.6    74    3.5   130      7.7   697.9    0.00      29    999.0    -0.6
 183    6:00   49.7    72    3.2   130      6.1   698.2    0.00      31    999.0    -0.8
 183    6:10   48.8    76    2.5   148      4.2   697.9    0.00      33    999.0    -0.8
 183    6:20   49.0    76    1.1   150      3.1   697.9    0.00      76    999.0    -0.7
 183    6:30   51.8    70    2.0   180      4.7   698.0    0.00     291    999.0    -0.7
 183    6:40   54.3    65    1.6   156      3.9   698.0    0.00     331    999.0    -0.8
 183    6:50   56.2    60    1.1   115      4.2   698.0    0.00     364    999.0    -0.8
 183    7:00   57.5    58    2.3   238      7.6   697.8    0.00     395    999.0    -0.7
 183    7:10   58.1    51    3.9   245      7.9   698.2    0.00     430    999.0    -0.7
 183    7:20   58.2    51    5.4   240      9.4   698.4    0.00     463    999.0    -0.7
 183    7:30   58.4    48    3.8   240      7.5   698.6    0.00     494    999.0    -0.7
 183    7:40   59.4    47    2.7   138      7.2   698.7    0.00     525    999.0    -0.7
 183    7:50   60.4    44    3.2   172      7.8   699.1    0.00     553    999.0    -0.7
 183    8:00   60.7    44    3.1   230      6.9   698.8    0.00     581    999.0    -0.7
 183    8:10   60.5    45    4.4   231      8.8   699.0    0.00     608    999.0    -0.7
 183    8:20   60.5    43    6.2   256     11.2   698.7    0.00     639    999.0    -0.7
 183    8:30   60.6    40    5.7   246     11.2   699.0    0.00     666    999.0    -0.7
 183    8:40   60.9    38    4.4   232      8.8   699.0    0.00     693    999.0    -0.7
 183    8:50   61.1    37    4.0   237      9.8   698.9    0.00     733    999.0    -0.7
 183    9:00   61.7    35    3.7   219      8.4   699.2    0.00     763    999.0    -0.7
 183    9:10   62.1    34    3.4   232      9.3   699.3    0.00     791    999.0    -0.7
 183    9:20   62.0    34    3.8   226      8.7   699.2    0.00     665    999.0    -0.7
 183    9:30   61.6    36    3.6   252      8.8   699.7    0.00     464    999.0    -0.6
 183    9:40   63.0    36    2.1    53      5.8   699.2    0.00     916    999.0    -0.7
 183    9:50   63.8    46    2.5    64      5.9   699.3    0.00     397    999.0    -0.9
 183   10:00   60.0    54    2.9   117      6.4   699.5    0.00     127    999.0    -0.6
 183   10:10   58.8    54    4.2   148      8.9   700.0    0.00      84    999.0    -0.5
 183   10:20   57.8    53    2.7   141      5.4   700.1    0.00      45    999.0    -0.5
 183   10:30   57.2    56    1.9   185      5.0   700.4    0.00      57    999.0    -0.5
 183   10:40   57.0    58    1.2   148      4.8   700.5    0.00      84    999.0    -0.6
 183   10:50   57.3    57    3.2    56      6.8   700.5    0.00     114    999.0    -0.5
 183   11:00   57.0    63    3.9    58      7.3   700.3    0.00     171    999.0    -0.5
 183   11:10   58.8    58    2.4   107      5.8   700.3    0.00     721    999.0    -0.5
 183   11:20   61.8    50    3.0    30      6.6   700.2    0.00     867    999.0    -0.5
 183   11:30   61.1    49    5.4    78      8.4   700.3    0.00     730    999.0    -0.6
 183   11:40   58.8    64    4.6   120     10.2   700.2    0.00     143    999.0    -0.5
 183   11:50   57.8    66    3.2   129      5.8   700.3    0.00     155    999.0    -0.4
 183   12:00   58.1    65    2.4   129      5.2   700.3    0.00     177    999.0    -0.5
 183   12:10   58.3    61    3.1   130      6.6   700.0    0.00     174    999.0    -0.5
 183   12:20   59.7    55    3.8   120      6.4   700.2    0.00     707    999.0    -0.5
 183   12:30   60.2    55    4.0   130      7.4   699.9    0.00     508    999.0    -0.5
 183   12:40   59.9    58    4.1   151      8.5   699.8    0.00     273    999.0    -0.5
 183   12:50   59.4    57    4.7   134      9.6   699.7    0.00     207    999.0    -0.5
 183   13:00   59.4    56    3.8   142      6.6   699.6    0.00     188    999.0    -0.5
 183   13:10   59.5    49    2.5   139      7.6   699.6    0.00     178    999.0    -0.5
 183   13:20   59.9    46    2.8   122      6.1   699.4    0.00     285    999.0    -0.5
 183   13:30   61.2    45    1.6   196      4.0   699.5    0.00     288    999.0    -0.6
 183   13:40   61.3    39    1.8   114      6.2   699.2    0.00     182    999.0    -0.6
 183   13:50   62.2    38    4.0   225      9.9   699.2    0.00     505    999.0    -0.5
 183   14:00   63.6    38    3.4   149      9.1   699.1    0.00     524    999.0    -0.5
 183   14:10   62.7    37    5.8   163     15.7   699.4    0.00     419    999.0    -0.6
 183   14:20   65.0    34    4.5   250     10.5   699.3    0.00     730    999.0    -0.5
 183   14:30   64.7    32    3.8   136     12.3   699.1    0.00     229    999.0    -0.6
 183   14:40   63.0    39    3.2   137      6.8   699.1    0.00     269    999.0    -0.6
 183   14:50   62.3    44    4.6   128     11.3   699.2    0.00     248    999.0    -0.6
 183   15:00   62.1    48    4.9   137     13.9   699.3    0.00     389    999.0    -0.6
 183   15:10   62.2    50    4.5   136     10.4   699.3    0.00     349    999.0    -0.6
 183   15:20   60.4    45    4.4   130      9.0   699.3    0.00     263    999.0    -0.6
 183   15:30   60.3    45    3.8   133      7.6   699.3    0.00     345    999.0    -0.6
 183   15:40   60.9    41    2.4    86      5.3   699.3    0.00     378    999.0    -0.6
 183   15:50   61.1    50    3.1    92      8.5   699.4    0.00     270    999.0    -0.6
 183   16:00   60.2    49    3.1    35      7.1   699.1    0.00      88    999.0    -0.7
 183   16:10   59.1    50    3.4    33      6.4   699.2    0.00      68    999.0    -0.6
 183   16:20   58.9    46    4.3    36      7.8   699.3    0.00      83    999.0    -0.6
 183   16:30   59.0    40    3.5    52      8.8   699.3    0.00     135    999.0    -0.6
 183   16:40   58.8    40    2.6    61      4.7   699.2    0.00      77    999.0    -0.6
 183   16:50   58.6    43    3.9    49     11.0   699.4    0.00      45    999.0    -0.7
 183   17:00   57.2    49    6.9    41     11.7   699.6    0.00      19    999.0    -0.7
 183   17:10   56.4    46    5.6    38     10.9   699.7    0.00      11    999.0    -0.6
 183   17:20   55.6    48    4.3    32      8.2   699.9    0.00       7    999.0    -0.7
 183   17:30   54.9    52    4.1    30      8.7   699.3    0.00       8    999.0    -0.6
 183   17:40   53.4    58   10.1    43     23.2   699.6    0.00       6    999.0    -0.7
 183   17:50   51.7    65    5.6    37     14.2   699.6    0.00       6    999.0    -0.6
 183   18:00   51.0    68    5.1    26     13.2   699.2    0.00       5    999.0    -0.6
 183   18:10   50.4    72    6.1   323     12.6   698.8    0.00       5    999.0    -0.6
 183   18:20   49.4    78    2.7   341      7.8   698.7    0.01       9    999.0    -0.6
 183   18:30   49.3    80    2.0    61      8.9   698.4    0.00      20    999.0    -0.6
 183   18:40   49.5    77    4.1    39      8.8   698.4    0.00      51    999.0    -0.6
 183   18:50   50.3    71    4.8    43      9.5   698.4    0.00      43    999.0    -0.6
 183   19:00   50.4    70    3.7    34      9.3   698.4    0.00      30    999.0    -0.6
 183   19:10   50.8    68    3.8    44      8.4   698.3    0.00      32    999.0    -0.6
 183   19:20   51.3    64    4.8    43     12.4   698.5    0.00      26    999.0    -0.6
 183   19:30   52.2    60    5.4    39     10.4   698.8    0.00       6    999.0    -0.6
 183   19:40   52.0    62    3.8    33      9.0   698.6    0.00       0    999.0    -0.6
 183   19:50   51.0    67    2.5   336      5.5   698.8    0.00       0    999.0    -0.7
 183   20:00   49.4    75    2.0   217      5.0   698.7    0.00       0    999.0    -0.7
 183   20:10   49.0    76    0.6   129      1.8   698.9    0.00       0    999.0    -0.7
 183   20:20   48.3    79    1.4   156      4.3   699.1    0.00       0    999.0    -0.6
 183   20:30   48.5    75    1.5   210      3.1   699.1    0.00       0    999.0    -0.6
 183   20:40   48.8    73    1.7   236      6.3   699.2    0.00       0    999.0    -0.6
 183   20:50   49.3    69    1.2   254      5.4   699.4    0.00       0    999.0    -0.6
 183   21:00   49.8    66    0.8   192      2.6   699.5    0.00       0    999.0    -0.6
 183   21:10   49.8    64    0.5   177      2.2   699.4    0.00       0    999.0    -0.7
 183   21:20   49.3    67    1.2   146      2.4   699.4    0.00       0    999.0    -0.7
 183   21:30   50.1    59    3.7   233      8.0   699.7    0.00       0    999.0    -0.6
 183   21:40   50.2    61    1.8   130      3.2   699.3    0.00       0    999.0    -0.8
 183   21:50   49.7    60    2.9   137      4.2   699.2    0.00       0    999.0    -0.7
 183   22:00   51.3    52    1.9   137      4.1   699.3    0.00       0    999.0    -0.7
 183   22:10   50.7    57    1.3   314      3.1   699.4    0.00       0    999.0    -0.9
 183   22:20   48.1    64    0.6   238      2.6   699.6    0.00       0    999.0    -0.8
 183   22:30   47.2    69    1.9   134      4.1   699.2    0.00       0    999.0    -0.8
 183   22:40   45.5    74    1.9   226      4.3   699.2    0.00       0    999.0    -0.7
 183   22:50   45.9    73    0.9   256      2.8   699.2    0.00       0    999.0    -0.7
 183   23:00   45.1    75    1.1   182      3.4   699.1    0.00       0    999.0    -0.8

Return to Crooked Creek Research Lab graphs page.


Western Regional Climate Center,wrcc@dri.edu